Time;durP1;ratioP1;P1;durP2;ratioP2;P2;SDS_P1;SDS_P2;PMS_P1;PMS_P2;Temp;Humidity;BMP_temperature;BMP_pressure;BME280_temperature;BME280_humidity;BME280_pressure;Samples;Min_cycle;Max_cycle;Signal;HPM_P1;HPM_P2
2023/08/05 00:00:55;;;;;;;1.27;1.08;;;;;;;;;;5017943;28;20048;-62
2023/08/05 00:03:21;;;;;;;0.88;0.88;;;;;;;;;;5017888;28;20083;-62
2023/08/05 00:05:47;;;;;;;0.73;0.73;;;;;;;;;;5020722;28;20048;-61
2023/08/05 00:08:13;;;;;;;1.15;1.08;;;;;;;;;;5017656;28;20037;-61
2023/08/05 00:10:43;;;;;;;1.55;1.20;;;;;;;;;;5018838;28;20044;-62
2023/08/05 00:13:09;;;;;;;0.93;0.80;;;;;;;;;;5017877;28;20132;-62
2023/08/05 00:15:35;;;;;;;0.90;0.90;;;;;;;;;;5019379;28;20072;-61
2023/08/05 00:18:01;;;;;;;1.10;1.00;;;;;;;;;;5017295;28;20041;-61
2023/08/05 00:20:27;;;;;;;0.90;0.90;;;;;;;;;;5016772;28;20042;-61
2023/08/05 00:22:53;;;;;;;2.00;1.00;;;;;;;;;;5018237;28;20046;-61
2023/08/05 00:25:19;;;;;;;0.80;0.80;;;;;;;;;;5014809;28;20113;-61
2023/08/05 00:27:45;;;;;;;0.90;0.90;;;;;;;;;;5017868;28;20168;-61
2023/08/05 00:30:11;;;;;;;0.75;0.75;;;;;;;;;;5020099;28;20045;-62
2023/08/05 00:32:37;;;;;;;0.93;0.93;;;;;;;;;;5018996;28;20048;-62
2023/08/05 00:35:05;;;;;;;0.85;0.82;;;;;;;;;;5021652;28;20072;-61
2023/08/05 00:37:31;;;;;;;0.90;0.90;;;;;;;;;;5014162;28;20034;-62
2023/08/05 00:39:57;;;;;;;0.85;0.85;;;;;;;;;;5017066;28;20137;-61
2023/08/05 00:42:23;;;;;;;1.20;1.10;;;;;;;;;;5015658;28;20399;-61
2023/08/05 00:44:49;;;;;;;1.00;0.90;;;;;;;;;;5017047;28;20048;-62
2023/08/05 00:47:20;;;;;;;1.27;1.17;;;;;;;;;;5019581;28;20038;-62
2023/08/05 00:49:46;;;;;;;0.93;0.90;;;;;;;;;;5017750;28;20069;-61
2023/08/05 00:52:14;;;;;;;1.10;1.00;;;;;;;;;;5016588;28;20046;-62
2023/08/05 00:54:40;;;;;;;1.25;1.00;;;;;;;;;;4981655;28;1063876;-61
2023/08/05 00:57:07;;;;;;;1.30;1.20;;;;;;;;;;5017322;28;20407;-61
2023/08/05 00:59:33;;;;;;;0.95;0.90;;;;;;;;;;5022079;28;20050;-62
2023/08/05 01:01:58;;;;;;;1.30;1.20;;;;;;;;;;5016683;28;20038;-62
2023/08/05 01:04:24;;;;;;;2.92;1.33;;;;;;;;;;5022042;28;20034;-62
2023/08/05 01:06:51;;;;;;;1.45;1.35;;;;;;;;;;5018356;28;20069;-61
2023/08/05 01:09:17;;;;;;;1.42;1.33;;;;;;;;;;5018948;28;20140;-62
2023/08/05 01:11:44;;;;;;;1.33;1.10;;;;;;;;;;5016443;28;20161;-62
2023/08/05 01:14:10;;;;;;;1.25;1.15;;;;;;;;;;5014540;28;20454;-62
2023/08/05 01:16:36;;;;;;;2.15;1.20;;;;;;;;;;5015496;28;20057;-62
2023/08/05 01:19:04;;;;;;;1.55;1.45;;;;;;;;;;5014517;28;20528;-62
2023/08/05 01:21:53;;;;;;;2.28;1.33;;;;;;;;;;5019885;28;20050;-62
2023/08/05 01:24:18;;;;;;;1.15;1.10;;;;;;;;;;4979011;28;20155;-62
2023/08/05 01:26:45;;;;;;;1.20;1.10;;;;;;;;;;5017798;28;20042;-62
2023/08/05 01:29:11;;;;;;;1.25;1.15;;;;;;;;;;5016994;28;20041;-62
2023/08/05 01:31:37;;;;;;;1.88;1.52;;;;;;;;;;5017939;28;20046;-62
2023/08/05 01:34:04;;;;;;;1.27;1.10;;;;;;;;;;5016387;28;20839;-61
2023/08/05 01:36:31;;;;;;;1.13;1.02;;;;;;;;;;5016426;28;20098;-62
2023/08/05 01:38:57;;;;;;;1.35;1.25;;;;;;;;;;5020184;28;20424;-62
2023/08/05 01:41:23;;;;;;;1.40;1.30;;;;;;;;;;5011989;28;20041;-62
2023/08/05 01:43:49;;;;;;;1.52;1.23;;;;;;;;;;5014643;28;20037;-62
2023/08/05 01:46:15;;;;;;;0.90;0.88;;;;;;;;;;5010663;28;20048;-62
2023/08/05 01:48:41;;;;;;;1.55;1.17;;;;;;;;;;5014183;28;20391;-62
2023/08/05 01:51:07;;;;;;;1.48;1.38;;;;;;;;;;5016676;28;20446;-61
2023/08/05 01:53:33;;;;;;;2.03;1.35;;;;;;;;;;5013447;28;20093;-61
2023/08/05 01:55:59;;;;;;;1.00;1.00;;;;;;;;;;5008940;28;20147;-61
2023/08/05 01:58:25;;;;;;;1.35;1.25;;;;;;;;;;5015161;28;20076;-62
2023/08/05 02:00:52;;;;;;;1.27;1.17;;;;;;;;;;5015658;28;20128;-62
2023/08/05 02:03:18;;;;;;;1.23;1.20;;;;;;;;;;5013355;28;20446;-61
2023/08/05 02:05:44;;;;;;;1.63;1.00;;;;;;;;;;5015986;28;20438;-62
2023/08/05 02:08:10;;;;;;;1.25;1.15;;;;;;;;;;5014505;28;20046;-62
2023/08/05 02:10:37;;;;;;;1.27;1.17;;;;;;;;;;5018186;28;20034;-61
2023/08/05 02:13:04;;;;;;;1.35;1.10;;;;;;;;;;5013233;28;20121;-62
2023/08/05 02:15:30;;;;;;;1.20;1.10;;;;;;;;;;5014148;28;20045;-62
2023/08/05 02:17:56;;;;;;;1.45;1.05;;;;;;;;;;5015625;28;20052;-61
2023/08/05 02:20:22;;;;;;;0.82;0.82;;;;;;;;;;5006624;28;20103;-61
2023/08/05 02:22:48;;;;;;;1.20;1.10;;;;;;;;;;5004720;28;20077;-61
2023/08/05 02:25:14;;;;;;;1.40;1.30;;;;;;;;;;5004843;28;20069;-62
2023/08/05 02:27:40;;;;;;;1.27;1.17;;;;;;;;;;5004698;28;20034;-62
2023/08/05 02:30:06;;;;;;;1.27;0.90;;;;;;;;;;5013530;28;20108;-62
2023/08/05 02:32:32;;;;;;;1.17;1.08;;;;;;;;;;5015750;28;20061;-61
2023/08/05 02:34:58;;;;;;;1.67;0.98;;;;;;;;;;5013638;28;20052;-61
2023/08/05 02:37:24;;;;;;;2.05;1.02;;;;;;;;;;5015429;28;20513;-62
2023/08/05 02:39:50;;;;;;;1.25;1.15;;;;;;;;;;5012204;28;20108;-62
2023/08/05 02:42:16;;;;;;;1.08;0.98;;;;;;;;;;5010250;28;20049;-62
2023/08/05 02:44:42;;;;;;;2.97;1.40;;;;;;;;;;5013290;28;20042;-62
2023/08/05 02:47:08;;;;;;;1.50;1.40;;;;;;;;;;5012440;28;20041;-62
2023/08/05 02:49:35;;;;;;;1.00;1.00;;;;;;;;;;5013618;28;20096;-61
2023/08/05 02:52:01;;;;;;;1.10;0.80;;;;;;;;;;5012449;28;20029;-61
2023/08/05 02:54:27;;;;;;;1.58;1.45;;;;;;;;;;5009605;28;20063;-62
2023/08/05 02:56:53;;;;;;;1.83;1.73;;;;;;;;;;5014205;28;20053;-62
2023/08/05 02:59:19;;;;;;;1.58;1.48;;;;;;;;;;5010895;28;20117;-61
2023/08/05 03:01:45;;;;;;;1.13;0.93;;;;;;;;;;5011776;28;20108;-61
2023/08/05 03:04:11;;;;;;;1.20;1.10;;;;;;;;;;5010726;28;20399;-62
2023/08/05 03:06:37;;;;;;;1.50;1.38;;;;;;;;;;5014225;28;20041;-62
2023/08/05 03:09:04;;;;;;;1.33;1.20;;;;;;;;;;5014998;28;20770;-62
2023/08/05 03:11:31;;;;;;;1.10;1.05;;;;;;;;;;5010161;28;20129;-62
2023/08/05 03:13:57;;;;;;;1.35;1.25;;;;;;;;;;5012237;28;20045;-62
2023/08/05 03:16:23;;;;;;;1.70;1.30;;;;;;;;;;5010819;28;20630;-62
2023/08/05 03:18:49;;;;;;;1.77;1.38;;;;;;;;;;5013518;28;20045;-62
2023/08/05 03:21:15;;;;;;;1.35;1.25;;;;;;;;;;5018269;28;20807;-62
2023/08/05 03:23:41;;;;;;;1.40;1.30;;;;;;;;;;5017225;28;20052;-62
2023/08/05 03:26:07;;;;;;;1.13;1.02;;;;;;;;;;5021588;28;20120;-61
2023/08/05 03:28:33;;;;;;;0.90;0.90;;;;;;;;;;5018158;28;20440;-62
2023/08/05 03:30:59;;;;;;;1.20;1.10;;;;;;;;;;5013706;28;20096;-62
2023/08/05 03:33:25;;;;;;;1.08;0.95;;;;;;;;;;5014999;28;20034;-61
2023/08/05 03:35:52;;;;;;;1.38;1.20;;;;;;;;;;5021010;28;20041;-62
2023/08/05 03:38:18;;;;;;;1.30;1.20;;;;;;;;;;5014487;28;20120;-61
2023/08/05 03:40:44;;;;;;;1.30;1.20;;;;;;;;;;5016609;28;20909;-61
2023/08/05 03:43:10;;;;;;;1.15;1.05;;;;;;;;;;5018894;28;20037;-61
2023/08/05 03:45:36;;;;;;;1.35;1.17;;;;;;;;;;5018841;28;20029;-61
2023/08/05 03:48:02;;;;;;;1.10;1.10;;;;;;;;;;5018534;28;20045;-61
2023/08/05 03:50:28;;;;;;;1.85;1.27;;;;;;;;;;5012833;28;20511;-61
2023/08/05 03:52:55;;;;;;;0.65;0.50;;;;;;;;;;5017883;28;20041;-61
2023/08/05 03:55:21;;;;;;;0.80;0.80;;;;;;;;;;5018315;28;20897;-61
2023/08/05 03:57:47;;;;;;;1.10;0.93;;;;;;;;;;5012299;28;20495;-62
2023/08/05 04:00:14;;;;;;;1.08;0.95;;;;;;;;;;5013762;28;20821;-61
2023/08/05 04:02:43;;;;;;;1.38;1.27;;;;;;;;;;5015866;28;20129;-62
2023/08/05 04:05:09;;;;;;;0.95;0.85;;;;;;;;;;5018960;28;20042;-61
2023/08/05 04:07:36;;;;;;;1.27;1.00;;;;;;;;;;5014642;28;20041;-62
2023/08/05 04:10:03;;;;;;;1.02;0.95;;;;;;;;;;5014416;28;20037;-62
2023/08/05 04:12:30;;;;;;;2.67;0.98;;;;;;;;;;5017167;28;20074;-62
2023/08/05 04:14:58;;;;;;;0.70;0.70;;;;;;;;;;5018419;28;20499;-62
2023/08/05 04:17:24;;;;;;;0.52;0.52;;;;;;;;;;5017989;28;20034;-62
2023/08/05 04:19:50;;;;;;;0.60;0.60;;;;;;;;;;5016462;28;20041;-61
2023/08/05 04:22:20;;;;;;;0.85;0.85;;;;;;;;;;5017309;28;20034;-61
2023/08/05 04:24:46;;;;;;;0.70;0.70;;;;;;;;;;5015985;28;20041;-62
2023/08/05 04:27:12;;;;;;;1.15;1.08;;;;;;;;;;5021638;28;20038;-61
2023/08/05 04:29:38;;;;;;;0.70;0.70;;;;;;;;;;5013115;28;20049;-61
2023/08/05 04:32:05;;;;;;;1.45;0.75;;;;;;;;;;5014011;28;20041;-62
2023/08/05 04:34:36;;;;;;;1.33;1.20;;;;;;;;;;5021892;28;20404;-62
2023/08/05 04:37:35;;;;;;;1.42;1.05;;;;;;;;;;5022529;28;20057;-61
2023/08/05 04:40:01;;;;;;;0.90;0.90;;;;;;;;;;4966099;28;20381;-62
2023/08/05 04:42:26;;;;;;;0.70;0.50;;;;;;;;;;5018360;28;20041;-62
2023/08/05 04:44:54;;;;;;;0.60;0.60;;;;;;;;;;5015553;28;20048;-62
2023/08/05 04:47:20;;;;;;;1.02;0.70;;;;;;;;;;5017764;28;20045;-61
2023/08/05 04:49:46;;;;;;;0.98;0.70;;;;;;;;;;5015948;28;20072;-61
2023/08/05 04:52:13;;;;;;;1.08;0.75;;;;;;;;;;5018209;28;20049;-61
2023/08/05 04:54:40;;;;;;;0.60;0.60;;;;;;;;;;5018334;28;20112;-61
2023/08/05 04:57:07;;;;;;;0.68;0.68;;;;;;;;;;5012841;28;20091;-61
2023/08/05 04:59:33;;;;;;;0.75;0.60;;;;;;;;;;5014967;28;20056;-61
2023/08/05 05:01:59;;;;;;;0.98;0.73;;;;;;;;;;5014316;28;20037;-62
2023/08/05 05:04:25;;;;;;;0.77;0.73;;;;;;;;;;5016061;28;20049;-62
2023/08/05 05:06:51;;;;;;;0.60;0.60;;;;;;;;;;5014515;28;20041;-62
2023/08/05 05:09:17;;;;;;;0.60;0.60;;;;;;;;;;5015281;28;20125;-61
2023/08/05 05:11:43;;;;;;;1.35;0.60;;;;;;;;;;5012931;28;20084;-61
2023/08/05 05:14:09;;;;;;;0.60;0.60;;;;;;;;;;5013446;28;20041;-61
2023/08/05 05:16:36;;;;;;;0.60;0.60;;;;;;;;;;5015912;28;20507;-62
2023/08/05 05:19:02;;;;;;;0.50;0.50;;;;;;;;;;5015357;28;20034;-62
2023/08/05 05:21:28;;;;;;;0.98;0.90;;;;;;;;;;5013987;28;20037;-62
2023/08/05 05:23:54;;;;;;;0.68;0.68;;;;;;;;;;5013992;28;20506;-62
2023/08/05 05:26:20;;;;;;;0.90;0.60;;;;;;;;;;5017463;28;20041;-61
2023/08/05 05:28:46;;;;;;;0.70;0.50;;;;;;;;;;5019793;28;20052;-61
2023/08/05 05:31:12;;;;;;;0.55;0.40;;;;;;;;;;5016073;28;20113;-61
2023/08/05 05:33:38;;;;;;;0.70;0.70;;;;;;;;;;5014677;28;20402;-61
2023/08/05 05:36:04;;;;;;;0.50;0.50;;;;;;;;;;5017777;28;20395;-61
2023/08/05 05:38:30;;;;;;;0.40;0.40;;;;;;;;;;5015125;28;20136;-62
2023/08/05 05:40:56;;;;;;;0.43;0.43;;;;;;;;;;5016593;28;20129;-61
2023/08/05 05:43:22;;;;;;;1.10;1.00;;;;;;;;;;5018918;28;20053;-61
2023/08/05 05:45:52;;;;;;;1.13;0.90;;;;;;;;;;5013405;28;20041;-62
2023/08/05 05:48:18;;;;;;;0.80;0.77;;;;;;;;;;5013338;28;20049;-62
2023/08/05 05:50:44;;;;;;;0.98;0.90;;;;;;;;;;5016334;28;20041;-62
2023/08/05 05:53:13;;;;;;;0.75;0.75;;;;;;;;;;5017091;28;20125;-62
2023/08/05 05:55:45;;;;;;;1.15;0.93;;;;;;;;;;5014350;28;20077;-62
2023/08/05 05:58:11;;;;;;;1.20;1.10;;;;;;;;;;5015842;28;20052;-63
2023/08/05 06:00:38;;;;;;;0.77;0.73;;;;;;;;;;5017694;28;20080;-62
2023/08/05 06:03:05;;;;;;;0.90;0.90;;;;;;;;;;5014902;28;20488;-61
2023/08/05 06:05:31;;;;;;;0.50;0.50;;;;;;;;;;5010585;28;20038;-62
2023/08/05 06:07:57;;;;;;;0.60;0.60;;;;;;;;;;5013054;28;20652;-61
2023/08/05 06:10:23;;;;;;;1.00;0.70;;;;;;;;;;5006578;28;20041;-61
2023/08/05 06:12:49;;;;;;;0.90;0.80;;;;;;;;;;5008922;28;20041;-61
2023/08/05 06:15:15;;;;;;;0.80;0.68;;;;;;;;;;5012309;28;20048;-61
2023/08/05 06:17:41;;;;;;;2.00;1.10;;;;;;;;;;5013988;28;20049;-61
2023/08/05 06:20:08;;;;;;;1.17;0.93;;;;;;;;;;5012463;28;20048;-62
2023/08/05 06:22:34;;;;;;;1.20;1.10;;;;;;;;;;5013068;28;20407;-62
2023/08/05 06:25:00;;;;;;;1.75;1.20;;;;;;;;;;5015340;28;20038;-62
2023/08/05 06:27:27;;;;;;;1.40;1.00;;;;;;;;;;5010329;28;20038;-62
2023/08/05 06:29:53;;;;;;;1.23;1.02;;;;;;;;;;5010957;28;20053;-62
2023/08/05 06:32:19;;;;;;;0.73;0.73;;;;;;;;;;5017151;28;20044;-62
2023/08/05 06:34:45;;;;;;;1.20;0.93;;;;;;;;;;5014199;28;20041;-61
2023/08/05 06:37:11;;;;;;;0.98;0.88;;;;;;;;;;5014775;28;20038;-62
2023/08/05 06:39:37;;;;;;;0.75;0.75;;;;;;;;;;5018146;28;20041;-62
2023/08/05 06:42:03;;;;;;;0.50;0.50;;;;;;;;;;5014984;28;20072;-62
2023/08/05 06:44:29;;;;;;;1.35;0.60;;;;;;;;;;5014839;28;20044;-62
2023/08/05 06:46:55;;;;;;;1.77;1.00;;;;;;;;;;5016385;28;20050;-61
2023/08/05 06:49:21;;;;;;;0.90;0.63;;;;;;;;;;5013423;28;20041;-62
2023/08/05 06:51:47;;;;;;;1.20;0.93;;;;;;;;;;5015744;28;20046;-61
2023/08/05 06:54:13;;;;;;;1.00;0.90;;;;;;;;;;5012381;28;20136;-61
2023/08/05 06:56:39;;;;;;;2.25;1.00;;;;;;;;;;5014573;28;21053;-62
2023/08/05 06:59:05;;;;;;;1.45;1.35;;;;;;;;;;5018442;28;20049;-62
2023/08/05 07:01:31;;;;;;;1.63;1.38;;;;;;;;;;5020085;28;20052;-62
2023/08/05 07:03:57;;;;;;;2.25;1.15;;;;;;;;;;5015936;28;20041;-62
2023/08/05 07:06:23;;;;;;;2.45;1.23;;;;;;;;;;5007556;28;20113;-62
2023/08/05 07:08:49;;;;;;;0.93;0.93;;;;;;;;;;5012172;28;20038;-61
2023/08/05 07:11:15;;;;;;;1.20;0.82;;;;;;;;;;5010481;28;20041;-63
2023/08/05 07:13:41;;;;;;;0.80;0.80;;;;;;;;;;5015610;28;20404;-62
2023/08/05 07:16:07;;;;;;;1.42;0.93;;;;;;;;;;5020934;28;20041;-63
2023/08/05 07:18:33;;;;;;;1.60;1.10;;;;;;;;;;5014035;28;20107;-63
2023/08/05 07:20:59;;;;;;;1.20;1.02;;;;;;;;;;5017858;28;20041;-63
2023/08/05 07:23:26;;;;;;;1.30;0.93;;;;;;;;;;5022404;28;20415;-63
2023/08/05 07:25:52;;;;;;;0.98;0.88;;;;;;;;;;5015594;28;20643;-63
2023/08/05 07:28:18;;;;;;;1.08;0.80;;;;;;;;;;5016136;28;20042;-63
2023/08/05 07:30:44;;;;;;;2.78;1.10;;;;;;;;;;5018296;28;20049;-63
2023/08/05 07:33:11;;;;;;;1.50;1.13;;;;;;;;;;5018049;28;20046;-63
2023/08/05 07:35:37;;;;;;;2.28;1.15;;;;;;;;;;5016046;28;20650;-63
2023/08/05 07:38:09;;;;;;;1.77;0.90;;;;;;;;;;5016025;28;20029;-63
2023/08/05 07:40:35;;;;;;;1.23;0.70;;;;;;;;;;5017906;28;20126;-63
2023/08/05 07:43:02;;;;;;;1.42;0.90;;;;;;;;;;5026293;28;20056;-62
2023/08/05 07:45:28;;;;;;;1.00;0.90;;;;;;;;;;5012132;28;20045;-63
2023/08/05 07:47:56;;;;;;;1.10;1.00;;;;;;;;;;5013838;28;20045;-63
2023/08/05 07:50:23;;;;;;;1.25;1.02;;;;;;;;;;5017538;28;20144;-63
2023/08/05 07:52:53;;;;;;;2.38;1.35;;;;;;;;;;5017805;28;20060;-63
2023/08/05 07:55:20;;;;;;;2.72;1.35;;;;;;;;;;5021104;28;20181;-63
2023/08/05 07:57:46;;;;;;;1.85;1.00;;;;;;;;;;5019743;28;20471;-63
2023/08/05 08:00:13;;;;;;;2.45;1.13;;;;;;;;;;5020146;28;21018;-62
2023/08/05 08:02:44;;;;;;;2.00;1.05;;;;;;;;;;5017425;28;20650;-61
2023/08/05 08:05:13;;;;;;;1.00;0.90;;;;;;;;;;5010385;28;20091;-60
2023/08/05 08:07:44;;;;;;;0.85;0.85;;;;;;;;;;5013284;28;20041;-57
2023/08/05 08:10:11;;;;;;;2.87;1.50;;;;;;;;;;5018986;28;20041;-63
2023/08/05 08:12:36;;;;;;;9.52;1.45;;;;;;;;;;5018184;28;20503;-63
2023/08/05 08:15:03;;;;;;;1.50;1.40;;;;;;;;;;5022028;28;20041;-63
2023/08/05 08:17:29;;;;;;;1.17;0.95;;;;;;;;;;5022962;28;20049;-63
2023/08/05 08:19:55;;;;;;;1.20;1.10;;;;;;;;;;5021767;28;20041;-63
2023/08/05 08:22:21;;;;;;;2.25;1.20;;;;;;;;;;5016017;28;20037;-63
2023/08/05 08:24:47;;;;;;;1.20;1.10;;;;;;;;;;5017398;28;20183;-63
2023/08/05 08:27:13;;;;;;;3.05;1.67;;;;;;;;;;5009820;28;20044;-63
2023/08/05 08:29:39;;;;;;;2.53;1.10;;;;;;;;;;5009353;28;20042;-64
2023/08/05 08:32:05;;;;;;;1.20;1.10;;;;;;;;;;5015688;28;20045;-68
2023/08/05 08:34:31;;;;;;;2.97;1.42;;;;;;;;;;5011147;28;20522;-67
2023/08/05 08:36:57;;;;;;;1.38;1.10;;;;;;;;;;5008300;28;20503;-66
2023/08/05 08:39:23;;;;;;;1.98;1.40;;;;;;;;;;5010757;28;20066;-67
2023/08/05 08:41:49;;;;;;;2.80;1.83;;;;;;;;;;5017868;28;21122;-67
2023/08/05 08:44:16;;;;;;;1.83;1.30;;;;;;;;;;5012584;28;20133;-67
2023/08/05 08:46:43;;;;;;;1.55;1.35;;;;;;;;;;5012157;28;20053;-67
2023/08/05 08:49:11;;;;;;;1.63;1.52;;;;;;;;;;5014544;28;20038;-66
2023/08/05 08:51:37;;;;;;;6.07;3.53;;;;;;;;;;5013971;28;20121;-66
2023/08/05 08:54:03;;;;;;;3.50;2.30;;;;;;;;;;5016108;28;20057;-66
2023/08/05 08:56:31;;;;;;;3.17;1.70;;;;;;;;;;5011459;28;20053;-66
2023/08/05 08:58:57;;;;;;;7.60;4.43;;;;;;;;;;5012083;28;20041;-66
2023/08/05 09:01:23;;;;;;;6.57;3.70;;;;;;;;;;5014396;28;20049;-66
2023/08/05 09:03:51;;;;;;;3.35;2.53;;;;;;;;;;5011138;28;20156;-66
2023/08/05 09:06:18;;;;;;;2.17;1.73;;;;;;;;;;5012174;28;21178;-66
2023/08/05 09:08:44;;;;;;;2.92;1.35;;;;;;;;;;5015216;28;20393;-66
2023/08/05 09:11:10;;;;;;;1.40;1.30;;;;;;;;;;5011792;28;20038;-66
2023/08/05 09:13:39;;;;;;;1.38;1.10;;;;;;;;;;5019248;28;20034;-66
2023/08/05 09:16:05;;;;;;;1.27;1.17;;;;;;;;;;5013993;28;20041;-67
2023/08/05 09:18:31;;;;;;;1.33;1.20;;;;;;;;;;5014723;28;20610;-66
2023/08/05 09:21:00;;;;;;;1.83;1.35;;;;;;;;;;5015657;28;20033;-66
2023/08/05 09:23:26;;;;;;;1.02;0.90;;;;;;;;;;5013505;28;20408;-66
2023/08/05 09:25:52;;;;;;;1.23;1.13;;;;;;;;;;5012775;28;20045;-66
2023/08/05 09:28:29;;;;;;;1.40;1.15;;;;;;;;;;5008464;28;20044;-66
2023/08/05 09:31:11;;;;;;;1.63;1.45;;;;;;;;;;5007514;28;20088;-65
2023/08/05 09:33:37;;;;;;;1.98;1.48;;;;;;;;;;5013943;28;20084;-67
2023/08/05 09:36:10;;;;;;;1.35;0.98;;;;;;;;;;5014210;28;20041;-66
2023/08/05 09:38:38;;;;;;;0.93;0.90;;;;;;;;;;5006438;28;20049;-66
2023/08/05 09:41:06;;;;;;;1.92;1.35;;;;;;;;;;5012952;28;20042;-65
2023/08/05 09:43:34;;;;;;;1.75;1.17;;;;;;;;;;5007716;28;20076;-64
2023/08/05 09:46:02;;;;;;;2.45;1.17;;;;;;;;;;5014572;28;20049;-65
2023/08/05 09:48:31;;;;;;;2.50;1.10;;;;;;;;;;5013739;28;20092;-65
2023/08/05 09:50:59;;;;;;;1.88;1.45;;;;;;;;;;5009187;28;20084;-66
2023/08/05 09:53:29;;;;;;;1.85;1.17;;;;;;;;;;5015360;28;20060;-65
2023/08/05 09:55:55;;;;;;;1.30;1.10;;;;;;;;;;5009813;28;20159;-65
2023/08/05 09:58:21;;;;;;;1.58;1.00;;;;;;;;;;5012565;28;20433;-65
2023/08/05 10:00:49;;;;;;;1.00;0.80;;;;;;;;;;5009679;28;20045;-65
2023/08/05 10:03:16;;;;;;;2.10;1.25;;;;;;;;;;5016949;28;20220;-65
2023/08/05 10:05:45;;;;;;;1.05;0.85;;;;;;;;;;5014103;28;20049;-65
2023/08/05 10:08:14;;;;;;;1.08;0.80;;;;;;;;;;5012065;28;20100;-65
2023/08/05 10:10:41;;;;;;;2.22;1.13;;;;;;;;;;5010103;28;20044;-65
2023/08/05 10:13:09;;;;;;;1.00;0.90;;;;;;;;;;5008011;28;20072;-65
2023/08/05 10:15:42;;;;;;;0.77;0.75;;;;;;;;;;5012016;28;20395;-65
2023/08/05 10:18:09;;;;;;;1.05;1.00;;;;;;;;;;5009524;28;20594;-65
2023/08/05 10:20:36;;;;;;;1.25;1.15;;;;;;;;;;5008394;28;20312;-65
2023/08/05 10:23:03;;;;;;;1.15;1.05;;;;;;;;;;5012551;28;20596;-65
2023/08/05 10:25:42;;;;;;;1.33;1.00;;;;;;;;;;5012859;28;20952;-65
2023/08/05 10:28:09;;;;;;;0.95;0.90;;;;;;;;;;5007464;28;20080;-65
2023/08/05 10:30:44;;;;;;;1.08;0.98;;;;;;;;;;5012518;28;20045;-65
2023/08/05 10:33:10;;;;;;;1.20;1.10;;;;;;;;;;5012180;28;20041;-65
2023/08/05 10:35:40;;;;;;;1.95;1.20;;;;;;;;;;5015973;28;20106;-65
2023/08/05 10:38:19;;;;;;;1.80;1.10;;;;;;;;;;5016276;28;20083;-65
2023/08/05 10:40:56;;;;;;;0.75;0.75;;;;;;;;;;5015065;28;20049;-65
2023/08/05 10:43:27;;;;;;;1.38;1.00;;;;;;;;;;5012804;28;20042;-65
2023/08/05 10:45:54;;;;;;;1.23;1.13;;;;;;;;;;5017387;28;20052;-65
2023/08/05 10:48:20;;;;;;;1.27;1.13;;;;;;;;;;5015236;28;20423;-65
2023/08/05 10:50:49;;;;;;;2.05;1.17;;;;;;;;;;5019368;28;20045;-65
2023/08/05 10:53:15;;;;;;;1.35;1.10;;;;;;;;;;5016519;28;20038;-65
2023/08/05 10:55:45;;;;;;;0.90;0.90;;;;;;;;;;5018368;28;20442;-65
2023/08/05 10:58:11;;;;;;;1.60;1.10;;;;;;;;;;5026697;28;20076;-65
2023/08/05 11:00:42;;;;;;;1.08;0.80;;;;;;;;;;5019913;28;20052;-65
2023/08/05 11:03:27;;;;;;;1.85;1.20;;;;;;;;;;5016709;28;20049;-65
2023/08/05 11:05:54;;;;;;;1.75;1.27;;;;;;;;;;5021772;28;21249;-65
2023/08/05 11:08:21;;;;;;;1.48;1.23;;;;;;;;;;5014227;28;20438;-65
2023/08/05 11:10:51;;;;;;;1.35;1.10;;;;;;;;;;5017507;28;20641;-65
2023/08/05 11:13:17;;;;;;;1.63;1.20;;;;;;;;;;5017381;28;20066;-65
2023/08/05 11:15:43;;;;;;;1.20;1.10;;;;;;;;;;5019374;28;20045;-65
2023/08/05 11:18:09;;;;;;;1.95;1.10;;;;;;;;;;5018918;28;20033;-65
2023/08/05 11:20:35;;;;;;;1.30;1.20;;;;;;;;;;5016380;28;20129;-65
2023/08/05 11:23:02;;;;;;;1.83;1.23;;;;;;;;;;5026603;28;20063;-65
2023/08/05 11:25:29;;;;;;;2.53;1.20;;;;;;;;;;5019934;28;20479;-65
2023/08/05 11:27:55;;;;;;;1.20;0.85;;;;;;;;;;5017439;28;20125;-65
2023/08/05 11:30:21;;;;;;;1.67;1.50;;;;;;;;;;5012216;28;20037;-65
2023/08/05 11:32:55;;;;;;;2.28;1.20;;;;;;;;;;5022292;28;20120;-65
2023/08/05 11:35:22;;;;;;;1.27;1.02;;;;;;;;;;5023597;28;20049;-65
2023/08/05 11:37:48;;;;;;;1.38;1.15;;;;;;;;;;5015920;28;20045;-65
2023/08/05 11:40:14;;;;;;;1.20;1.00;;;;;;;;;;5010382;28;20038;-65
2023/08/05 11:42:40;;;;;;;1.00;1.00;;;;;;;;;;5016622;28;20395;-65
2023/08/05 11:45:12;;;;;;;3.22;1.50;;;;;;;;;;5013723;28;20037;-65
2023/08/05 11:47:39;;;;;;;1.40;1.30;;;;;;;;;;5018345;28;20041;-66
2023/08/05 11:50:05;;;;;;;1.73;1.40;;;;;;;;;;5015287;28;20072;-65
2023/08/05 11:52:31;;;;;;;1.90;1.30;;;;;;;;;;5016212;28;20034;-62
2023/08/05 11:54:58;;;;;;;1.60;1.20;;;;;;;;;;5020768;28;20054;-66
2023/08/05 11:57:24;;;;;;;1.45;1.35;;;;;;;;;;5018708;28;20372;-66
2023/08/05 11:59:51;;;;;;;1.35;1.25;;;;;;;;;;5012306;28;20389;-66
2023/08/05 12:02:18;;;;;;;1.45;1.30;;;;;;;;;;5021887;28;20034;-66
2023/08/05 12:04:45;;;;;;;2.47;1.25;;;;;;;;;;5013491;28;20049;-66
2023/08/05 12:07:15;;;;;;;1.42;1.33;;;;;;;;;;5017584;28;20051;-66
2023/08/05 12:09:42;;;;;;;1.17;1.10;;;;;;;;;;5012477;28;20092;-66
2023/08/05 12:12:15;;;;;;;1.55;1.33;;;;;;;;;;5017437;28;20128;-66
2023/08/05 12:14:41;;;;;;;1.60;1.50;;;;;;;;;;5017090;28;20079;-66
2023/08/05 12:17:07;;;;;;;1.50;1.33;;;;;;;;;;5013864;28;20124;-66
2023/08/05 12:19:33;;;;;;;1.63;1.15;;;;;;;;;;5012619;28;20038;-66
2023/08/05 12:21:59;;;;;;;1.00;1.00;;;;;;;;;;5010043;28;20042;-66
2023/08/05 12:24:25;;;;;;;1.83;1.20;;;;;;;;;;5014654;28;20053;-67
2023/08/05 12:26:51;;;;;;;1.50;1.40;;;;;;;;;;5013303;28;20403;-67
2023/08/05 12:29:17;;;;;;;1.70;1.60;;;;;;;;;;5014944;28;20095;-67
2023/08/05 12:31:43;;;;;;;1.40;1.30;;;;;;;;;;5017969;28;20087;-67
2023/08/05 12:34:10;;;;;;;2.50;1.35;;;;;;;;;;5016325;28;20076;-67
2023/08/05 12:36:37;;;;;;;1.65;1.40;;;;;;;;;;5017526;28;20037;-67
2023/08/05 12:39:03;;;;;;;1.73;1.63;;;;;;;;;;5013865;28;20069;-67
2023/08/05 12:41:29;;;;;;;1.88;1.77;;;;;;;;;;5013135;28;20512;-67
2023/08/05 12:43:55;;;;;;;1.90;1.80;;;;;;;;;;5016806;28;20573;-67
2023/08/05 12:46:21;;;;;;;2.92;1.67;;;;;;;;;;5017447;28;20463;-67
2023/08/05 12:48:47;;;;;;;1.67;1.55;;;;;;;;;;5015821;28;20045;-67
2023/08/05 12:51:13;;;;;;;1.52;1.42;;;;;;;;;;5014448;28;20052;-67
2023/08/05 12:53:41;;;;;;;1.70;1.60;;;;;;;;;;5014561;28;20141;-67
2023/08/05 12:56:07;;;;;;;2.00;1.75;;;;;;;;;;5017266;28;20041;-67
2023/08/05 12:58:34;;;;;;;4.13;2.33;;;;;;;;;;5018382;28;20505;-67
2023/08/05 13:01:00;;;;;;;2.28;2.08;;;;;;;;;;5017170;28;20048;-67
2023/08/05 13:03:26;;;;;;;1.92;1.80;;;;;;;;;;5014476;28;20046;-67
2023/08/05 13:05:52;;;;;;;2.20;2.00;;;;;;;;;;5015047;28;20652;-67
2023/08/05 13:08:18;;;;;;;2.10;1.90;;;;;;;;;;5016650;28;20042;-67
2023/08/05 13:10:45;;;;;;;2.42;2.08;;;;;;;;;;5017235;28;20116;-67
2023/08/05 13:13:11;;;;;;;1.85;1.75;;;;;;;;;;5017124;28;20048;-67
2023/08/05 13:15:37;;;;;;;2.20;2.00;;;;;;;;;;5015259;28;20046;-67
2023/08/05 13:18:03;;;;;;;2.28;2.08;;;;;;;;;;5013713;28;20045;-67
2023/08/05 13:20:30;;;;;;;1.92;1.83;;;;;;;;;;5017228;28;20124;-67
2023/08/05 13:22:56;;;;;;;4.65;2.70;;;;;;;;;;5017189;28;20045;-67
2023/08/05 13:25:22;;;;;;;2.58;2.38;;;;;;;;;;5016761;28;20191;-67
2023/08/05 13:27:49;;;;;;;2.70;2.50;;;;;;;;;;5015012;28;20164;-67
2023/08/05 13:30:15;;;;;;;2.70;2.50;;;;;;;;;;5012167;28;20142;-67
2023/08/05 13:32:41;;;;;;;3.30;3.00;;;;;;;;;;5017196;28;20046;-67
2023/08/05 13:35:07;;;;;;;3.50;3.20;;;;;;;;;;5016379;28;20049;-67
2023/08/05 13:37:34;;;;;;;4.07;3.67;;;;;;;;;;5016167;28;20287;-66
2023/08/05 13:40:00;;;;;;;4.25;3.95;;;;;;;;;;5014831;28;20184;-66
2023/08/05 13:42:26;;;;;;;4.47;4.00;;;;;;;;;;5014556;28;20038;-66
2023/08/05 13:44:52;;;;;;;4.18;3.88;;;;;;;;;;5015789;28;20045;-66
2023/08/05 13:47:18;;;;;;;4.57;4.18;;;;;;;;;;5017025;28;20041;-67
2023/08/05 13:49:44;;;;;;;5.00;4.18;;;;;;;;;;5016557;28;20117;-67
2023/08/05 13:52:10;;;;;;;5.85;5.38;;;;;;;;;;5013889;28;20129;-67
2023/08/05 13:54:36;;;;;;;6.35;5.32;;;;;;;;;;5014521;28;20056;-67
2023/08/05 13:57:02;;;;;;;5.30;4.90;;;;;;;;;;5015768;28;20050;-67
2023/08/05 13:59:28;;;;;;;5.78;5.38;;;;;;;;;;5017127;28;20172;-67
2023/08/05 14:01:54;;;;;;;5.63;5.13;;;;;;;;;;5016673;28;20045;-66
2023/08/05 14:04:20;;;;;;;4.95;4.63;;;;;;;;;;5014107;28;20088;-67
2023/08/05 14:06:46;;;;;;;5.18;4.78;;;;;;;;;;5013454;28;20119;-66
2023/08/05 14:09:12;;;;;;;5.55;5.15;;;;;;;;;;5015864;28;20069;-66
2023/08/05 14:11:38;;;;;;;4.70;4.40;;;;;;;;;;5017310;28;20449;-66
2023/08/05 14:14:04;;;;;;;8.27;6.72;;;;;;;;;;5015828;28;20124;-66
2023/08/05 14:16:30;;;;;;;5.57;5.18;;;;;;;;;;5013733;28;20034;-66
2023/08/05 14:18:57;;;;;;;5.15;4.75;;;;;;;;;;5014068;28;20053;-66
2023/08/05 14:21:23;;;;;;;4.32;4.03;;;;;;;;;;5014186;28;20054;-66
2023/08/05 14:23:49;;;;;;;3.67;3.38;;;;;;;;;;5016815;28;20172;-66
2023/08/05 14:26:15;;;;;;;3.85;3.60;;;;;;;;;;5015916;28;20068;-66
2023/08/05 14:28:41;;;;;;;3.00;2.80;;;;;;;;;;5014192;28;20491;-67
2023/08/05 14:31:07;;;;;;;4.70;4.30;;;;;;;;;;5013875;28;20041;-66
2023/08/05 14:33:33;;;;;;;3.38;3.17;;;;;;;;;;5014202;28;20046;-66
2023/08/05 14:35:59;;;;;;;2.38;2.15;;;;;;;;;;5017268;28;20037;-66
2023/08/05 14:38:25;;;;;;;1.30;1.20;;;;;;;;;;5016489;28;20432;-67
2023/08/05 14:40:51;;;;;;;1.20;1.10;;;;;;;;;;5014427;28;20048;-67